Nearby METAR Reports - 80 Mile Radius
Meteorological Terminal Air Report (METAR)


KBWI - Balto/Wash Intl Airport, Maryland
Distance from station: S 5mi, 8km
Updated: Sat, 27-May-2017 3:54am EDT
Overcast
Overcast
 Wind from W
Wind: W 3 mph , 6 km/h
Temperature: 59°F , 15°C
Dew Point: 55°F , 13°C
Humidity: 88%
Barometer: 29.91 inHg , 1012.9 hPa
Clouds: Overcast
Visibility: 10 miles , 16 km
Cloud details: Mostly cloudy 5000 ft
Overcast 6500 ft
2017/05/27 07:54 KBWI 270754Z 26003KT 10SM BKN050 OVC065 15/13 A2991 RMK AO2 SLP129 T01500133
KDMH - Baltimore/Dwntwn, Maryland
Distance from station: NE 5mi, 9km
Updated: Sat, 27-May-2017 3:54am EDT

 
Temperature: 64°F , 18°C
Dew Point: 54°F , 12°C
Humidity: 68%
Barometer: 29.92 inHg , 1013.2 hPa
2017/05/27 07:54 KDMH 270754Z AUTO 18/12 A2992 RMK AO1 SLP130 T01830122
KFME - Fort Meade/Tipton AAF, Maryland
Distance from station: SSW 11mi, 18km
Updated: Sat, 27-May-2017 3:51am EDT
Overcast
Overcast
 Wind from calm
Wind: Calm
Temperature: 54°F , 12°C
Dew Point: 54°F , 12°C
Humidity: 100%
Barometer: 29.94 inHg , 1013.9 hPa
Clouds: Overcast
Visibility: 10 miles , 16 km
Cloud details: Partly cloudy 5500 ft
Overcast 6500 ft
2017/05/27 07:51 KFME 270751Z AUTO 00000KT 10SM SCT055 OVC065 12/12 A2994 RMK AO1
 
KMTN - Balto/Martin State Airport, Maryland
Distance from station: ENE 16mi, 26km
Updated: Sat, 27-May-2017 3:51am EDT
Overcast
Overcast
 Wind from calm
Wind: Calm
Temperature: 61°F , 16°C
Dew Point: 59°F , 15°C
Humidity: 94%
Barometer: 29.92 inHg , 1013.2 hPa
Clouds: Overcast
Visibility: 10 miles , 16 km
Cloud details: Partly cloudy 5000 ft
Overcast 6500 ft
2017/05/27 07:51 KMTN 270751Z AUTO 00000KT 10SM SCT050 OVC065 16/15 A2992 RMK AO2
KCGS - College Park Airport, Maryland
Distance from station: SSW 21mi, 34km
Updated: Sat, 27-May-2017 3:53am EDT
Overcast
Overcast
 Wind from calm
Wind: Calm
Temperature: 59°F , 15°C
Dew Point: 55°F , 13°C
Humidity: 88%
Barometer: 29.92 inHg , 1013.2 hPa
Clouds: Overcast
Visibility: 10 miles , 16 km
Cloud details: Overcast 5500 ft
2017/05/27 07:53 KCGS 270753Z AUTO 00000KT 10SM OVC055 15/13 A2992 RMK AO1 T01450128
KNAK - Annapolis/Naval Academy, Maryland
Distance from station: SE 21mi, 34km
Updated: Sat, 27-May-2017 3:54am EDT
Overcast
Overcast
 Wind from calm
Wind: Calm
Temperature: 63°F , 17°C
Dew Point: 57°F , 14°C
Humidity: 83%
Barometer: 29.91 inHg , 1012.9 hPa
Clouds: Overcast
Visibility: 10 miles , 16 km
Cloud details: Overcast 7000 ft
2017/05/27 07:54 KNAK 270754Z AUTO 00000KT 10SM OVC070 17/14 A2991 RMK AO2 SLP131 T01720144
 
KGAI - Gaithersburg/Montgomery Co Airpark, Maryland
Distance from station: W 26mi, 41km
Updated: Sat, 27-May-2017 3:56am EDT
Partly cloudy
Partly cloudy
 Wind from calm
Wind: Calm
Temperature: 54°F , 12°C
Dew Point: 54°F , 12°C
Humidity: 100%
Barometer: 29.95 inHg , 1014.2 hPa
Clouds: Partly cloudy
Visibility: 10 miles , 16 km
Cloud details: Partly cloudy 5000 ft
2017/05/27 07:56 KGAI 270756Z AUTO 00000KT 10SM SCT050 12/12 A2995 RMK AO2 SLP168 T01220117
KW29 - Stevensville/Bay Bridge Airport, Maryland
Distance from station: SE 26mi, 42km
Updated: Sat, 27-May-2017 3:50am EDT
Overcast
Overcast
 Wind from calm
Wind: Calm
Temperature: 64°F , 18°C
Dew Point: 57°F , 14°C
Humidity: 78%
Barometer: 29.91 inHg , 1012.9 hPa
Clouds: Overcast
Visibility: 10 miles , 16 km
Cloud details: Overcast 5500 ft
2017/05/27 07:50 KW29 270750Z AUTO 00000KT 10SM OVC055 18/14 A2991 RMK AO2 LTG DSNT NW
KDMW - Carroll Co Regional Airport, Maryland
Distance from station: NNW 30mi, 48km
Updated: Sat, 27-May-2017 3:50am EDT
Mostly cloudy
Mostly cloudy
 Wind from calm
Wind: Calm
Temperature: 59°F , 15°C
Dew Point: 54°F , 12°C
Humidity: 82%
Barometer: 29.93 inHg , 1013.5 hPa
Clouds: Mostly cloudy
Visibility: 10 miles , 16 km
Cloud details: Partly cloudy 4300 ft
Partly cloudy 4900 ft
Mostly cloudy 6000 ft
2017/05/27 07:50 KDMW 270750Z AUTO 00000KT 10SM SCT043 SCT049 BKN060 15/12 A2993 RMK AO2 LTG DSNT W
 
KADW - Andrews AFB, Maryland
Distance from station: SSW 30mi, 49km
Updated: Sat, 27-May-2017 3:58am EDT
Overcast
Overcast
 Wind from WNW
Wind: WNW 3 mph , 6 km/h
Temperature: 61°F , 16°C
Dew Point: 55°F , 13°C
Humidity: 83%
Barometer: 29.91 inHg , 1012.9 hPa
Clouds: Overcast
Visibility: 10 miles , 16 km
Cloud details: Overcast 5500 ft
2017/05/27 07:58 KADW 270758Z AUTO 29003KT 10SM OVC055 16/13 A2991 RMK AO2 SLP134 T01550127
KAPG - Aberdeen/Phillip AAF, Maryland
Distance from station: ENE 32mi, 52km
Updated: Sat, 27-May-2017 2:58am EDT
Clear
Clear
 Wind from WNW
Wind: WNW 5 mph , 7 km/h
Temperature: 55°F , 13°C
Dew Point: 54°F , 12°C
Humidity: 94%
Barometer: 29.90 inHg , 1012.5 hPa
Clouds: Clear
Visibility: 9 miles , 14 km
2017/05/27 06:58 KAPG 270658Z AUTO 29004KT 9SM R22/5500FT CLR 13/12 A2990 RMK AO2 SLP128 T01330122 $
KDCA - Washington/Natl Airport, Washington D.C.
Distance from station: SW 32mi, 52km
Updated: Sat, 27-May-2017 3:52am EDT
Mostly cloudy
Mostly cloudy
 Wind from calm
Wind: Calm
Temperature: 63°F , 17°C
Dew Point: 59°F , 15°C
Humidity: 88%
Barometer: 29.93 inHg , 1013.5 hPa
Clouds: Mostly cloudy
Visibility: 10 miles , 16 km
Cloud details: Mostly cloudy 6000 ft
2017/05/27 07:52 KDCA 270752Z 00000KT 10SM BKN060 17/15 A2993 RMK AO2 SLP134 T01720150
 
KFDK - Frederick Municipal Airport, Maryland
Distance from station: WNW 38mi, 61km
Updated: Sat, 27-May-2017 3:45am EDT
Nearby thunderstorm, Mostly cloudy
Nearby thunderstorm, Mostly cloudy
 Wind from calm
Wind: Calm
Temperature: 55°F , 13°C
Dew Point: 55°F , 13°C
Humidity: 100%
Barometer: 29.97 inHg , 1014.9 hPa
Summary: Nearby Thunderstorm
Clouds: Mostly cloudy
Visibility: 10 miles , 16 km
Cloud details: Mostly cloudy 5000 ft
2017/05/27 07:45 KFDK 270745Z AUTO 00000KT 10SM VCTS BKN050 13/13 A2997 RMK AO2
KDAA - Fort Belvoir/Davison AAF, Virginia
Distance from station: SW 44mi, 71km
Updated: Sat, 27-May-2017 3:58am EDT
Mostly cloudy
Mostly cloudy
 Wind from calm
Wind: Calm
Temperature: 59°F , 15°C
Dew Point: 57°F , 14°C
Humidity: 94%
Barometer: 29.93 inHg , 1013.5 hPa
Clouds: Mostly cloudy
Visibility: 10 miles , 16 km
Cloud details: Mostly cloudy 6000 ft
2017/05/27 07:58 KDAA 270758Z AUTO 00000KT 10SM BKN060 15/14 A2993 RMK AO2 SLP138 T01460135
KESN - Easton/Newnam Field Airport, Maryland
Distance from station: SE 45mi, 73km
Updated: Sat, 27-May-2017 4:02am EDT
Mostly cloudy
Mostly cloudy
 Wind from calm
Wind: Calm
Temperature: 63°F , 17°C
Dew Point: 57°F , 14°C
Humidity: 83%
Barometer: 29.95 inHg , 1014.2 hPa
Clouds: Mostly cloudy
Visibility: 10 miles , 16 km
Cloud details: Mostly cloudy 6500 ft
2017/05/27 08:02 KESN 270802Z AUTO 00000KT 10SM BKN065 17/14 A2995 RMK AO2 T01670138
 
KIAD - Wash DC/Dulles Intl, Virginia
Distance from station: WSW 45mi, 73km
Updated: Sat, 27-May-2017 3:52am EDT
Mostly cloudy
Mostly cloudy
 Wind from calm
Wind: Calm
Temperature: 57°F , 14°C
Dew Point: 55°F , 13°C
Humidity: 94%
Barometer: 29.93 inHg , 1013.5 hPa
Clouds: Mostly cloudy
Visibility: 10 miles , 16 km
Cloud details: Mostly cloudy 5000 ft
2017/05/27 07:52 KIAD 270752Z 00000KT 10SM BKN050 14/13 A2993 RMK AO2 SLP135 T01390128
KJYO - Leesburg/Godfrey Field, Virginia
Distance from station: WSW 48mi, 77km
Updated: Sat, 27-May-2017 3:55am EDT
Partly cloudy
Partly cloudy
 Wind from calm
Wind: Calm
Temperature: 57°F , 14°C
Dew Point: 57°F , 14°C
Humidity: 100%
Barometer: 29.95 inHg , 1014.2 hPa
Clouds: Partly cloudy
Visibility: 10 miles , 16 km
Cloud details: Partly cloudy 6000 ft
2017/05/27 07:55 KJYO 270755Z AUTO 00000KT 10SM SCT060 14/14 A2995 RMK AO2
KTHV - York Airport, Pennsylvania
Distance from station: NNW 48mi, 77km
Updated: Sat, 27-May-2017 3:53am EDT
Overcast
Overcast
 Wind from calm
Wind: Calm
Temperature: 54°F , 12°C
Dew Point: 54°F , 12°C
Humidity: 100%
Barometer: 29.91 inHg , 1012.9 hPa
Clouds: Overcast
Visibility: 10 miles , 16 km
Cloud details: Overcast 5500 ft
2017/05/27 07:53 KTHV 270753Z AUTO 00000KT 10SM OVC055 12/12 A2991 RMK AO2 SLP130 T01220117 TSNO
 
KRSP - Naval Support Fac Thurmont, Maryland, USA
Distance from station: NW 50mi, 81km
Updated: Sat, 27-May-2017 2:54am EDT
Few Clouds
Few Clouds
 Wind from NW
Wind: NW 6 mph , 9 km/h
Temperature: 54°F , 12°C
Dew Point: 52°F , 11°C
Humidity: 94%
Barometer: 29.92 inHg , 1013.2 hPa
Clouds: Few Clouds
Visibility: 10 miles , 16 km
Cloud details: Few Clouds 3600 ft
2017/05/27 06:54 KRSP 270654Z AUTO 32005KT 10SM FEW036 12/11 A2992 RMK AO2 SLP132 T01220106 $
KRYT - Fountain Dale Airport, Pennsylvania
Distance from station: NW 52mi, 84km
Updated: Sat, 27-May-2017 2:53am EDT
Partly cloudy
Partly cloudy
 Wind from calm
Wind: Calm
Temperature: 52°F , 11°C
Dew Point: 52°F , 11°C
Humidity: 100%
Barometer: 29.92 inHg , 1013.2 hPa
Clouds: Partly cloudy
Visibility: 10 miles , 16 km
Cloud details: Partly cloudy 4700 ft
2017/05/27 06:53 KRYT 270653Z AUTO 00000KT 10SM SCT047 11/11 A2992 RMK AO2 SLP127 T01110111 TSNO $
KHEF - Manassas Municipal Airport, Virginia
Distance from station: SW 57mi, 91km
Updated: Sat, 27-May-2017 3:56am EDT
Overcast
Overcast
 Wind from calm
Wind: Calm
Temperature: 57°F , 14°C
Dew Point: 57°F , 14°C
Humidity: 100%
Barometer: 29.95 inHg , 1014.2 hPa
Clouds: Overcast
Visibility: 10 miles , 16 km
Cloud details: Overcast 6000 ft
2017/05/27 07:56 KHEF 270756Z AUTO 00000KT 10SM OVC060 14/14 A2995 RMK AO2 SLP150 T01440139 PNO $
 
KNYG - Quantico Marine Corps Air Fac, Virginia
Distance from station: SSW 60mi, 96km
Updated: Sat, 27-May-2017 3:56am EDT
Mostly cloudy
Mostly cloudy
 Wind from WNW
Wind: WNW 7 mph , 11 km/h
Temperature: 61°F , 16°C
Dew Point: 59°F , 15°C
Humidity: 94%
Barometer: 29.94 inHg , 1013.9 hPa
Clouds: Mostly cloudy
Visibility: 10 miles , 16 km
Cloud details: Mostly cloudy 6500 ft
2017/05/27 07:56 KNYG 270756Z AUTO 30006KT 10SM BKN065 16/15 A2994 RMK AO2 SLP139 T01560150 $
KCGE - Cambridge-Dorchester Reg Airport, Maryland
Distance from station: SE 60mi, 97km
Updated: Sat, 27-May-2017 3:50am EDT
Partly cloudy
Partly cloudy
 Wind from calm
Wind: Calm
Temperature: 59°F , 15°C
Dew Point: 57°F , 14°C
Humidity: 94%
Barometer: 29.91 inHg , 1012.9 hPa
Clouds: Partly cloudy
Visibility: 10 miles , 16 km
Cloud details: Partly cloudy 6000 ft
2017/05/27 07:50 KCGE 270750Z AUTO 00000KT 10SM SCT060 15/14 A2991 RMK A01
K2W6 - St Marys Co Reg Airport, Maryland
Distance from station: SSE 64mi, 103km
Updated: Sat, 27-May-2017 3:53am EDT
Mostly cloudy
Mostly cloudy
 Wind from calm
Wind: Calm
Temperature: 55°F , 13°C
Dew Point: 54°F , 12°C
Humidity: 94%
Barometer: 29.94 inHg , 1013.9 hPa
Clouds: Mostly cloudy
Visibility: 10 miles , 16 km
Cloud details: Mostly cloudy 6000 ft
2017/05/27 07:53 K2W6 270753Z AUTO 00000KT 10SM BKN060 13/12 A2994 RMK AO1
 
KHGR - Hagerstown Reg Airport, Maryland
Distance from station: WNW 64mi, 103km
Updated: Sat, 27-May-2017 3:53am EDT
Few Clouds
Few Clouds
 Wind from SW
Wind: SW 5 mph , 7 km/h
Temperature: 59°F , 15°C
Dew Point: 54°F , 12°C
Humidity: 82%
Barometer: 29.94 inHg , 1013.9 hPa
Clouds: Few Clouds
Visibility: 10 miles , 16 km
Cloud details: Few Clouds 5000 ft
2017/05/27 07:53 KHGR 270753Z AUTO 22004KT 10SM FEW050 15/12 A2994 RMK AO2 SLP144 T01500117
KLNS - Lancaster Airport, Pennsylvania
Distance from station: NNE 64mi, 104km
Updated: Sat, 27-May-2017 3:53am EDT
Clear
Clear
 Wind from W
Wind: W 3 mph , 6 km/h
Temperature: 55°F , 13°C
Dew Point: 52°F , 11°C
Humidity: 88%
Barometer: 29.90 inHg , 1012.5 hPa
Clouds: Clear
Visibility: 10 miles , 16 km
2017/05/27 07:53 KLNS 270753Z AUTO 27003KT 10SM CLR 13/11 A2990 RMK AO2 SLP123 T01280111
KILG - New Castle Airport, Wilmington, Delaware
Distance from station: ENE 66mi, 106km
Updated: Sat, 27-May-2017 3:51am EDT
Clear
Clear
 Wind from calm
Wind: Calm
Temperature: 55°F , 13°C
Dew Point: 54°F , 12°C
Humidity: 94%
Barometer: 29.90 inHg , 1012.5 hPa
Clouds: Clear
Visibility: 10 miles , 16 km
2017/05/27 07:51 KILG 270751Z AUTO 00000KT 10SM CLR 13/12 A2990 RMK AO2 SLP124 T01330117
 
KDOV - Dover Air Force Base, Delaware
Distance from station: E 66mi, 107km
Updated: Sat, 27-May-2017 3:58am EDT
Mostly cloudy
Mostly cloudy
 Wind from W
Wind: W 7 mph , 11 km/h
Temperature: 61°F , 16°C
Dew Point: 61°F , 16°C
Humidity: 100%
Barometer: 29.89 inHg , 1012.2 hPa
Clouds: Mostly cloudy
Visibility: 10 miles , 16 km
Cloud details: Mostly cloudy 6000 ft
2017/05/27 07:58 KDOV 270758Z AUTO 26006KT 10SM BKN060 16/16 A2989 RMK AO2 SLP125 T01560155 $
KMDT - Harrisburg Intl Airport, Middletown, Pennsylvania
Distance from station: N 67mi, 107km
Updated: Sat, 27-May-2017 3:56am EDT
Few Clouds
Few Clouds
 Wind from calm
Wind: Calm
Temperature: 55°F , 13°C
Dew Point: 52°F , 11°C
Humidity: 88%
Barometer: 29.90 inHg , 1012.5 hPa
Clouds: Few Clouds
Visibility: 10 miles , 16 km
Cloud details: Few Clouds 5000 ft
2017/05/27 07:56 KMDT 270756Z 00000KT 10SM FEW050 13/11 A2990 RMK AO2 SLP125 T01280111
KMQS - Chester Co Carlson Airport, Coatesville, Pennsylvania
Distance from station: NE 68mi, 109km
Updated: Sat, 27-May-2017 3:55am EDT
Clear
Clear
 Wind from WNW
Wind: WNW 7 mph , 11 km/h
Temperature: 52°F , 11°C
Dew Point: 50°F , 10°C
Humidity: 94%
Barometer: 29.91 inHg , 1012.9 hPa
Clouds: Clear
Visibility: 10 miles , 16 km
2017/05/27 07:55 KMQS 270755Z AUTO 30006KT 10SM CLR 11/10 A2991 RMK AO2
 
KCXY - Capital City Airport, Harrisburg, Pennsylvania
Distance from station: N 68mi, 110km
Updated: Sat, 27-May-2017 3:56am EDT
Light rain, Clear
Light rain, Clear
 Wind from WNW
Wind: WNW 5 mph , 7 km/h
Temperature: 57°F , 14°C
Dew Point: 50°F , 10°C
Humidity: 77%
Barometer: 29.91 inHg , 1012.9 hPa
Summary: Light rain
Clouds: Clear
Visibility: 10 miles , 16 km
2017/05/27 07:56 KCXY 270756Z AUTO 29004KT 10SM -RA CLR 14/10 A2991 RMK AO2 SLP127 P0000 T01390100
KNHK - Patuxent River NAS, Maryland
Distance from station: SE 69mi, 111km
Updated: Sat, 27-May-2017 3:52am EDT
Mostly cloudy
Mostly cloudy
 Wind from SW
Wind: SW 7 mph , 11 km/h
Temperature: 61°F , 16°C
Dew Point: 57°F , 14°C
Humidity: 88%
Barometer: 29.92 inHg , 1013.2 hPa
Clouds: Mostly cloudy
Visibility: 10 miles , 16 km
Cloud details: Mostly cloudy 6500 ft
2017/05/27 07:52 KNHK 270752Z 23006KT 10SM BKN065 16/14 A2992 RMK AO2 SLP132 T01560144
KMRB - Eastern WV Reg Airport/Shepherd Field, Martinsburg, West Virginia
Distance from station: W 70mi, 112km
Updated: Sat, 27-May-2017 3:53am EDT
Clear
Clear
 Wind from WSW
Wind: WSW 3 mph , 6 km/h
Temperature: 54°F , 12°C
Dew Point: 52°F , 11°C
Humidity: 94%
Barometer: 29.94 inHg , 1013.9 hPa
Clouds: Clear
Visibility: 7 miles , 11 km
2017/05/27 07:53 KMRB 270753Z AUTO 24003KT 7SM CLR 12/11 A2994 RMK AO2 SLP136 T01220111 TSNO
 
KHWY - Warrenton-Fauquier Airport, Warrenton, Virginia
Distance from station: SW 71mi, 114km
Updated: Sat, 27-May-2017 3:55am EDT
Overcast
Overcast
 Wind from calm
Wind: Calm
Temperature: 59°F , 15°C
Dew Point: 55°F , 13°C
Humidity: 88%
Barometer: 29.94 inHg , 1013.9 hPa
Clouds: Overcast
Visibility: 10 miles , 16 km
Cloud details: Overcast 5500 ft
2017/05/27 07:55 KHWY 270755Z AUTO 00000KT 10SM OVC055 15/13 A2994 RMK AO2 T01480132
KRMN - Stafford Regional Airport, Virginia
Distance from station: SW 71mi, 114km
Updated: Sat, 27-May-2017 3:55am EDT
Overcast
Overcast
 Wind from NW
Wind: NW 3 mph , 6 km/h
Temperature: 55°F , 13°C
Dew Point: 55°F , 13°C
Humidity: 100%
Barometer: 29.98 inHg , 1015.2 hPa
Clouds: Overcast
Visibility: 10 miles , 16 km
Cloud details: Overcast 6000 ft
2017/05/27 07:55 KRMN 270755Z AUTO 32003KT 10SM OVC060 13/13 A2998 RMK AO2 T01290129
KNUI - Webster Naval, St Inigoes, Maryland
Distance from station: S 76mi, 123km
Updated: Sat, 27-May-2017 3:53am EDT
Clear
Clear
 Wind from calm
Wind: Calm
Temperature: 57°F , 14°C
Dew Point: 57°F , 14°C
Humidity: 100%
Barometer: 29.91 inHg , 1012.9 hPa
Clouds: Clear
Visibility: 10 miles , 16 km
2017/05/27 07:53 KNUI 270753Z AUTO 00000KT 10SM CLR 14/14 A2991 RMK AO2 SLP129 T01440139
 
KEZF - Fredericksburg/Shan, Virginia
Distance from station: SSW 78mi, 126km
Updated: Sat, 27-May-2017 3:55am EDT
Partly cloudy
Partly cloudy
 Wind from calm
Wind: Calm
Temperature: 57°F , 14°C
Dew Point: 57°F , 14°C
Humidity: 100%
Barometer: 29.93 inHg , 1013.5 hPa
Clouds: Partly cloudy
Visibility: 10 miles , 16 km
Cloud details: Partly cloudy 7000 ft
2017/05/27 07:55 KEZF 270755Z AUTO 00000KT 10SM SCT070 14/14 A2993 RMK AO2 T01390139
KOKV - Winchester Regional Airport, Virginia
Distance from station: W 78mi, 126km
Updated: Sat, 27-May-2017 3:55am EDT
Mostly cloudy
Mostly cloudy
 Wind from W
Wind: W 3 mph , 6 km/h
Temperature: 54°F , 12°C
Dew Point: 54°F , 12°C
Humidity: 100%
Barometer: 29.95 inHg , 1014.2 hPa
Clouds: Mostly cloudy
Visibility: 10 miles , 16 km
Cloud details: Partly cloudy 4900 ft
Mostly cloudy 6000 ft
2017/05/27 07:55 KOKV 270755Z AUTO 28003KT 10SM SCT049 BKN060 12/12 A2995 RMK AO2
KCJR - Culpeper Regional Airport, Virginia
Distance from station: SW 79mi, 128km
Updated: Sat, 27-May-2017 3:55am EDT
Overcast
Overcast
 Wind from calm
Wind: Calm
Temperature: 57°F , 14°C
Dew Point: 57°F , 14°C
Humidity: 100%
Barometer: 29.95 inHg , 1014.2 hPa
Clouds: Overcast
Visibility: 10 miles , 16 km
Cloud details: Overcast 6000 ft
2017/05/27 07:55 KCJR 270755Z AUTO 00000KT 10SM OVC060 14/14 A2995 RMK AO2 T01420140